sensor_id;sensor_type;location;lat;lon;timestamp;temperature;humidity
10419;DHT22;5256;48.728;9.140;2023-01-01T00:01:07;10.60;99.90
10419;DHT22;5256;48.728;9.140;2023-01-01T00:03:33;10.50;99.90
10419;DHT22;5256;48.728;9.140;2023-01-01T00:05:58;10.50;99.90
10419;DHT22;5256;48.728;9.140;2023-01-01T00:08:24;10.50;99.90
10419;DHT22;5256;48.728;9.140;2023-01-01T00:10:49;10.40;99.90
10419;DHT22;5256;48.728;9.140;2023-01-01T00:13:15;10.40;99.90
10419;DHT22;5256;48.728;9.140;2023-01-01T00:15:41;10.40;99.90
10419;DHT22;5256;48.728;9.140;2023-01-01T00:18:06;10.40;99.90
10419;DHT22;5256;48.728;9.140;2023-01-01T00:20:32;10.50;99.90
10419;DHT22;5256;48.728;9.140;2023-01-01T00:22:57;10.50;99.90
10419;DHT22;5256;48.728;9.140;2023-01-01T00:25:23;10.60;99.90
10419;DHT22;5256;48.728;9.140;2023-01-01T00:27:49;10.50;99.90
10419;DHT22;5256;48.728;9.140;2023-01-01T00:30:14;10.60;99.90
10419;DHT22;5256;48.728;9.140;2023-01-01T00:32:40;10.50;99.90
10419;DHT22;5256;48.728;9.140;2023-01-01T00:35:06;10.50;99.90
10419;DHT22;5256;48.728;9.140;2023-01-01T00:37:32;10.50;99.90
10419;DHT22;5256;48.728;9.140;2023-01-01T00:39:57;10.60;99.90
10419;DHT22;5256;48.728;9.140;2023-01-01T00:42:23;10.60;99.90
10419;DHT22;5256;48.728;9.140;2023-01-01T00:44:49;10.60;99.90
10419;DHT22;5256;48.728;9.140;2023-01-01T00:47:14;10.60;99.90
10419;DHT22;5256;48.728;9.140;2023-01-01T00:49:40;10.50;99.90
10419;DHT22;5256;48.728;9.140;2023-01-01T00:52:05;10.40;99.90
10419;DHT22;5256;48.728;9.140;2023-01-01T00:54:31;10.30;99.90
10419;DHT22;5256;48.728;9.140;2023-01-01T00:56:56;10.20;99.90
10419;DHT22;5256;48.728;9.140;2023-01-01T00:59:22;10.10;99.90
10419;DHT22;5256;48.728;9.140;2023-01-01T01:01:48;10.10;99.90
10419;DHT22;5256;48.728;9.140;2023-01-01T01:04:13;10.00;99.90
10419;DHT22;5256;48.728;9.140;2023-01-01T01:06:39;9.90;99.90
10419;DHT22;5256;48.728;9.140;2023-01-01T01:09:04;9.90;99.90
10419;DHT22;5256;48.728;9.140;2023-01-01T01:11:31;9.80;99.90
10419;DHT22;5256;48.728;9.140;2023-01-01T01:13:57;9.80;99.90
10419;DHT22;5256;48.728;9.140;2023-01-01T01:16:27;9.70;99.90
10419;DHT22;5256;48.728;9.140;2023-01-01T01:18:56;9.90;99.90
10419;DHT22;5256;48.728;9.140;2023-01-01T01:21:22;9.90;99.90
10419;DHT22;5256;48.728;9.140;2023-01-01T01:23:48;9.90;99.90
10419;DHT22;5256;48.728;9.140;2023-01-01T01:26:25;9.90;99.90
10419;DHT22;5256;48.728;9.140;2023-01-01T01:28:52;10.00;99.90
10419;DHT22;5256;48.728;9.140;2023-01-01T01:31:19;10.00;99.90
10419;DHT22;5256;48.728;9.140;2023-01-01T01:33:46;10.00;99.90
10419;DHT22;5256;48.728;9.140;2023-01-01T01:36:13;9.90;99.90
10419;DHT22;5256;48.728;9.140;2023-01-01T01:38:40;9.80;99.90
10419;DHT22;5256;48.728;9.140;2023-01-01T01:41:06;9.60;99.90
10419;DHT22;5256;48.728;9.140;2023-01-01T01:46:41;9.20;99.90
10419;DHT22;5256;48.728;9.140;2023-01-01T01:48:50;9.10;99.90
10419;DHT22;5256;48.728;9.140;2023-01-01T01:51:26;8.90;99.90
10419;DHT22;5256;48.728;9.140;2023-01-01T01:53:56;8.90;99.90
10419;DHT22;5256;48.728;9.140;2023-01-01T01:59:17;8.70;99.90
10419;DHT22;5256;48.728;9.140;2023-01-01T02:01:44;8.60;99.90
10419;DHT22;5256;48.728;9.140;2023-01-01T02:04:11;8.60;99.90
10419;DHT22;5256;48.728;9.140;2023-01-01T02:06:37;8.70;99.90
10419;DHT22;5256;48.728;9.140;2023-01-01T02:09:05;8.70;99.90
10419;DHT22;5256;48.728;9.140;2023-01-01T02:11:32;8.70;99.90
10419;DHT22;5256;48.728;9.140;2023-01-01T02:13:59;8.60;99.90
10419;DHT22;5256;48.728;9.140;2023-01-01T02:19:43;8.60;99.90
10419;DHT22;5256;48.728;9.140;2023-01-01T02:27:58;8.50;99.90
10419;DHT22;5256;48.728;9.140;2023-01-01T02:30:27;8.60;99.90
10419;DHT22;5256;48.728;9.140;2023-01-01T02:32:57;8.70;99.90
10419;DHT22;5256;48.728;9.140;2023-01-01T02:35:44;8.60;99.90
10419;DHT22;5256;48.728;9.140;2023-01-01T02:38:36;8.40;99.90
10419;DHT22;5256;48.728;9.140;2023-01-01T02:43:33;8.50;99.90
10419;DHT22;5256;48.728;9.140;2023-01-01T02:45:59;8.60;99.90
10419;DHT22;5256;48.728;9.140;2023-01-01T02:48:44;8.70;99.90
10419;DHT22;5256;48.728;9.140;2023-01-01T02:56:49;9.30;99.90
10419;DHT22;5256;48.728;9.140;2023-01-01T02:59:32;9.40;99.90
10419;DHT22;5256;48.728;9.140;2023-01-01T03:02:23;9.50;99.90
10419;DHT22;5256;48.728;9.140;2023-01-01T03:05:14;9.70;99.90
10419;DHT22;5256;48.728;9.140;2023-01-01T03:08:13;9.80;99.90
10419;DHT22;5256;48.728;9.140;2023-01-01T03:10:50;10.00;99.90
10419;DHT22;5256;48.728;9.140;2023-01-01T03:13:25;10.10;99.90
10419;DHT22;5256;48.728;9.140;2023-01-01T03:16:02;10.20;99.90
10419;DHT22;5256;48.728;9.140;2023-01-01T03:18:42;10.20;99.90
10419;DHT22;5256;48.728;9.140;2023-01-01T03:21:09;10.10;99.90
10419;DHT22;5256;48.728;9.140;2023-01-01T03:23:41;10.00;99.90
10419;DHT22;5256;48.728;9.140;2023-01-01T03:26:11;9.90;99.90
10419;DHT22;5256;48.728;9.140;2023-01-01T03:28:45;9.90;99.90
10419;DHT22;5256;48.728;9.140;2023-01-01T03:31:14;9.80;99.90
10419;DHT22;5256;48.728;9.140;2023-01-01T03:33:45;9.70;99.90
10419;DHT22;5256;48.728;9.140;2023-01-01T03:36:19;9.70;99.90
10419;DHT22;5256;48.728;9.140;2023-01-01T03:38:53;9.70;99.90
10419;DHT22;5256;48.728;9.140;2023-01-01T03:41:25;9.70;99.90
10419;DHT22;5256;48.728;9.140;2023-01-01T03:44:03;9.70;99.90
10419;DHT22;5256;48.728;9.140;2023-01-01T03:46:32;9.70;99.90
10419;DHT22;5256;48.728;9.140;2023-01-01T03:48:59;9.60;99.90
10419;DHT22;5256;48.728;9.140;2023-01-01T03:57:42;9.30;99.90
10419;DHT22;5256;48.728;9.140;2023-01-01T04:00:37;9.20;99.90
10419;DHT22;5256;48.728;9.140;2023-01-01T04:03:11;9.20;99.90
10419;DHT22;5256;48.728;9.140;2023-01-01T04:05:40;9.20;99.90
10419;DHT22;5256;48.728;9.140;2023-01-01T04:08:07;9.10;99.90
10419;DHT22;5256;48.728;9.140;2023-01-01T04:10:37;9.10;99.90
10419;DHT22;5256;48.728;9.140;2023-01-01T04:13:04;9.00;99.90
10419;DHT22;5256;48.728;9.140;2023-01-01T04:15:31;9.00;99.90
10419;DHT22;5256;48.728;9.140;2023-01-01T04:17:57;8.90;99.90
10419;DHT22;5256;48.728;9.140;2023-01-01T04:20:23;8.90;99.90
10419;DHT22;5256;48.728;9.140;2023-01-01T04:22:49;8.70;99.90
10419;DHT22;5256;48.728;9.140;2023-01-01T04:25:15;8.60;99.90
10419;DHT22;5256;48.728;9.140;2023-01-01T04:27:42;8.50;99.90
10419;DHT22;5256;48.728;9.140;2023-01-01T04:30:11;8.40;99.90
10419;DHT22;5256;48.728;9.140;2023-01-01T04:32:37;8.30;99.90
10419;DHT22;5256;48.728;9.140;2023-01-01T04:35:04;8.20;99.90
10419;DHT22;5256;48.728;9.140;2023-01-01T04:37:29;8.20;99.90
10419;DHT22;5256;48.728;9.140;2023-01-01T04:39:55;8.10;99.90
10419;DHT22;5256;48.728;9.140;2023-01-01T04:42:21;8.10;99.90
10419;DHT22;5256;48.728;9.140;2023-01-01T04:44:47;8.00;99.90
10419;DHT22;5256;48.728;9.140;2023-01-01T04:47:12;7.90;99.90
10419;DHT22;5256;48.728;9.140;2023-01-01T04:49:38;7.80;99.90
10419;DHT22;5256;48.728;9.140;2023-01-01T04:52:04;7.80;99.90
10419;DHT22;5256;48.728;9.140;2023-01-01T04:54:29;7.80;99.90
10419;DHT22;5256;48.728;9.140;2023-01-01T04:56:55;7.90;99.90
10419;DHT22;5256;48.728;9.140;2023-01-01T04:59:20;7.90;99.90
10419;DHT22;5256;48.728;9.140;2023-01-01T05:01:46;7.80;99.90
10419;DHT22;5256;48.728;9.140;2023-01-01T05:04:13;7.80;99.90
10419;DHT22;5256;48.728;9.140;2023-01-01T05:06:39;7.80;99.90
10419;DHT22;5256;48.728;9.140;2023-01-01T05:09:05;7.90;99.90
10419;DHT22;5256;48.728;9.140;2023-01-01T05:11:30;7.90;99.90
10419;DHT22;5256;48.728;9.140;2023-01-01T05:13:58;7.90;99.90
10419;DHT22;5256;48.728;9.140;2023-01-01T05:16:26;7.90;99.90
10419;DHT22;5256;48.728;9.140;2023-01-01T05:18:52;8.00;99.90
10419;DHT22;5256;48.728;9.140;2023-01-01T05:21:24;8.00;99.90
10419;DHT22;5256;48.728;9.140;2023-01-01T05:23:54;7.90;99.90
10419;DHT22;5256;48.728;9.140;2023-01-01T05:26:22;8.00;99.90
10419;DHT22;5256;48.728;9.140;2023-01-01T05:28:49;8.00;99.90
10419;DHT22;5256;48.728;9.140;2023-01-01T05:31:23;8.00;99.90
10419;DHT22;5256;48.728;9.140;2023-01-01T05:33:49;8.00;99.90
10419;DHT22;5256;48.728;9.140;2023-01-01T05:36:22;8.00;99.90
10419;DHT22;5256;48.728;9.140;2023-01-01T05:38:48;7.90;99.90
10419;DHT22;5256;48.728;9.140;2023-01-01T05:41:16;7.90;99.90
10419;DHT22;5256;48.728;9.140;2023-01-01T05:43:42;8.00;99.90
10419;DHT22;5256;48.728;9.140;2023-01-01T05:46:18;8.00;99.90
10419;DHT22;5256;48.728;9.140;2023-01-01T05:48:44;8.00;99.90
10419;DHT22;5256;48.728;9.140;2023-01-01T05:51:16;8.10;99.90
10419;DHT22;5256;48.728;9.140;2023-01-01T05:53:41;8.00;99.90
10419;DHT22;5256;48.728;9.140;2023-01-01T05:56:09;8.10;99.90
10419;DHT22;5256;48.728;9.140;2023-01-01T05:58:35;8.00;99.90
10419;DHT22;5256;48.728;9.140;2023-01-01T06:01:08;8.00;99.90
10419;DHT22;5256;48.728;9.140;2023-01-01T06:03:34;7.90;99.90
10419;DHT22;5256;48.728;9.140;2023-01-01T06:06:06;7.80;99.90
10419;DHT22;5256;48.728;9.140;2023-01-01T06:08:32;7.70;99.90
10419;DHT22;5256;48.728;9.140;2023-01-01T06:10:59;7.60;99.90
10419;DHT22;5256;48.728;9.140;2023-01-01T06:13:25;7.50;99.90
10419;DHT22;5256;48.728;9.140;2023-01-01T06:15:58;7.40;99.90
10419;DHT22;5256;48.728;9.140;2023-01-01T06:18:25;7.30;99.90
10419;DHT22;5256;48.728;9.140;2023-01-01T06:20:51;7.30;99.90
10419;DHT22;5256;48.728;9.140;2023-01-01T06:23:17;7.20;99.90
10419;DHT22;5256;48.728;9.140;2023-01-01T06:25:43;7.10;99.90
10419;DHT22;5256;48.728;9.140;2023-01-01T06:28:09;7.10;99.90
10419;DHT22;5256;48.728;9.140;2023-01-01T06:30:35;7.10;99.90
10419;DHT22;5256;48.728;9.140;2023-01-01T06:33:01;7.10;99.90
10419;DHT22;5256;48.728;9.140;2023-01-01T06:35:27;7.00;99.90
10419;DHT22;5256;48.728;9.140;2023-01-01T06:37:53;7.00;99.90
10419;DHT22;5256;48.728;9.140;2023-01-01T06:40:19;7.00;99.90
10419;DHT22;5256;48.728;9.140;2023-01-01T06:42:44;6.90;99.90
10419;DHT22;5256;48.728;9.140;2023-01-01T06:45:10;6.90;99.90
10419;DHT22;5256;48.728;9.140;2023-01-01T06:47:37;6.90;99.90
10419;DHT22;5256;48.728;9.140;2023-01-01T06:50:04;6.90;99.90
10419;DHT22;5256;48.728;9.140;2023-01-01T06:52:30;6.90;99.90
10419;DHT22;5256;48.728;9.140;2023-01-01T06:54:56;6.90;99.90
10419;DHT22;5256;48.728;9.140;2023-01-01T06:57:22;6.90;99.90
10419;DHT22;5256;48.728;9.140;2023-01-01T06:59:48;6.90;99.90
10419;DHT22;5256;48.728;9.140;2023-01-01T07:02:13;6.90;99.90
10419;DHT22;5256;48.728;9.140;2023-01-01T07:04:39;6.90;99.90
10419;DHT22;5256;48.728;9.140;2023-01-01T07:07:04;6.90;99.90
10419;DHT22;5256;48.728;9.140;2023-01-01T07:09:30;6.90;99.90
10419;DHT22;5256;48.728;9.140;2023-01-01T07:11:55;6.80;99.90
10419;DHT22;5256;48.728;9.140;2023-01-01T07:14:21;6.80;99.90
10419;DHT22;5256;48.728;9.140;2023-01-01T07:16:46;6.80;99.90
10419;DHT22;5256;48.728;9.140;2023-01-01T07:19:12;6.80;99.90
10419;DHT22;5256;48.728;9.140;2023-01-01T07:21:42;6.80;99.90
10419;DHT22;5256;48.728;9.140;2023-01-01T07:24:13;6.70;99.90
10419;DHT22;5256;48.728;9.140;2023-01-01T07:26:38;6.70;99.90
10419;DHT22;5256;48.728;9.140;2023-01-01T07:29:05;6.60;99.90
10419;DHT22;5256;48.728;9.140;2023-01-01T07:31:33;6.60;99.90
10419;DHT22;5256;48.728;9.140;2023-01-01T07:33:59;6.60;99.90
10419;DHT22;5256;48.728;9.140;2023-01-01T07:36:24;6.60;99.90
10419;DHT22;5256;48.728;9.140;2023-01-01T07:38:50;6.60;99.90
10419;DHT22;5256;48.728;9.140;2023-01-01T07:41:15;6.70;99.90
10419;DHT22;5256;48.728;9.140;2023-01-01T07:43:41;6.80;99.90
10419;DHT22;5256;48.728;9.140;2023-01-01T07:46:10;6.80;99.90
10419;DHT22;5256;48.728;9.140;2023-01-01T07:48:36;6.90;99.90
10419;DHT22;5256;48.728;9.140;2023-01-01T07:51:02;6.90;99.90
10419;DHT22;5256;48.728;9.140;2023-01-01T07:53:27;7.00;99.90
10419;DHT22;5256;48.728;9.140;2023-01-01T07:55:53;7.10;99.90
10419;DHT22;5256;48.728;9.140;2023-01-01T07:58:19;7.30;99.90
10419;DHT22;5256;48.728;9.140;2023-01-01T08:00:45;7.40;99.90
10419;DHT22;5256;48.728;9.140;2023-01-01T08:03:12;7.50;99.90
10419;DHT22;5256;48.728;9.140;2023-01-01T08:05:37;7.60;99.90
10419;DHT22;5256;48.728;9.140;2023-01-01T08:08:03;7.60;99.90
10419;DHT22;5256;48.728;9.140;2023-01-01T08:10:29;7.60;99.90
10419;DHT22;5256;48.728;9.140;2023-01-01T08:12:59;7.80;99.90
10419;DHT22;5256;48.728;9.140;2023-01-01T08:15:25;7.90;99.90
10419;DHT22;5256;48.728;9.140;2023-01-01T08:17:58;7.90;99.90
10419;DHT22;5256;48.728;9.140;2023-01-01T08:20:25;7.90;99.90
10419;DHT22;5256;48.728;9.140;2023-01-01T08:22:51;7.90;99.90
10419;DHT22;5256;48.728;9.140;2023-01-01T08:25:17;7.80;99.90
10419;DHT22;5256;48.728;9.140;2023-01-01T08:27:42;7.90;99.90
10419;DHT22;5256;48.728;9.140;2023-01-01T08:30:10;7.90;99.90
10419;DHT22;5256;48.728;9.140;2023-01-01T08:32:36;8.00;99.90
10419;DHT22;5256;48.728;9.140;2023-01-01T08:35:01;8.10;99.90
10419;DHT22;5256;48.728;9.140;2023-01-01T08:37:27;8.10;99.90
10419;DHT22;5256;48.728;9.140;2023-01-01T08:39:52;8.20;99.90
10419;DHT22;5256;48.728;9.140;2023-01-01T08:42:18;8.30;99.90
10419;DHT22;5256;48.728;9.140;2023-01-01T08:44:44;8.30;99.90
10419;DHT22;5256;48.728;9.140;2023-01-01T08:47:21;8.40;99.90
10419;DHT22;5256;48.728;9.140;2023-01-01T08:49:47;8.40;99.90
10419;DHT22;5256;48.728;9.140;2023-01-01T08:52:13;8.50;99.90
10419;DHT22;5256;48.728;9.140;2023-01-01T08:54:39;8.60;99.90
10419;DHT22;5256;48.728;9.140;2023-01-01T08:57:05;8.70;99.90
10419;DHT22;5256;48.728;9.140;2023-01-01T08:59:30;8.80;99.90
10419;DHT22;5256;48.728;9.140;2023-01-01T09:01:56;8.90;99.90
10419;DHT22;5256;48.728;9.140;2023-01-01T09:04:21;9.00;99.90
10419;DHT22;5256;48.728;9.140;2023-01-01T09:06:47;9.20;99.90
10419;DHT22;5256;48.728;9.140;2023-01-01T09:09:13;9.40;99.90
10419;DHT22;5256;48.728;9.140;2023-01-01T09:11:38;9.60;99.90
10419;DHT22;5256;48.728;9.140;2023-01-01T09:14:04;9.70;99.90
10419;DHT22;5256;48.728;9.140;2023-01-01T09:16:29;10.00;99.90
10419;DHT22;5256;48.728;9.140;2023-01-01T09:18:55;10.20;99.90
10419;DHT22;5256;48.728;9.140;2023-01-01T09:21:20;10.40;99.90
10419;DHT22;5256;48.728;9.140;2023-01-01T09:23:46;10.50;99.90
10419;DHT22;5256;48.728;9.140;2023-01-01T09:26:11;10.70;99.90
10419;DHT22;5256;48.728;9.140;2023-01-01T09:28:37;10.70;99.90
10419;DHT22;5256;48.728;9.140;2023-01-01T09:31:04;10.90;99.90
10419;DHT22;5256;48.728;9.140;2023-01-01T09:33:31;10.90;99.90
10419;DHT22;5256;48.728;9.140;2023-01-01T09:38:51;11.10;99.90
10419;DHT22;5256;48.728;9.140;2023-01-01T09:41:26;11.20;99.90
10419;DHT22;5256;48.728;9.140;2023-01-01T09:46:47;11.40;99.90
10419;DHT22;5256;48.728;9.140;2023-01-01T09:49:35;11.40;99.90
10419;DHT22;5256;48.728;9.140;2023-01-01T09:52:03;11.40;99.90
10419;DHT22;5256;48.728;9.140;2023-01-01T09:54:36;11.50;99.90
10419;DHT22;5256;48.728;9.140;2023-01-01T09:57:06;11.40;99.90
10419;DHT22;5256;48.728;9.140;2023-01-01T09:59:34;11.50;99.90
10419;DHT22;5256;48.728;9.140;2023-01-01T10:02:21;11.60;99.90
10419;DHT22;5256;48.728;9.140;2023-01-01T10:05:07;11.70;99.90
10419;DHT22;5256;48.728;9.140;2023-01-01T10:07:59;11.80;99.90
10419;DHT22;5256;48.728;9.140;2023-01-01T10:10:57;11.90;99.90
10419;DHT22;5256;48.728;9.140;2023-01-01T10:13:36;12.10;99.90
10419;DHT22;5256;48.728;9.140;2023-01-01T10:16:22;12.20;99.90
10419;DHT22;5256;48.728;9.140;2023-01-01T10:18:57;12.60;99.90
10419;DHT22;5256;48.728;9.140;2023-01-01T10:21:37;12.70;99.90
10419;DHT22;5256;48.728;9.140;2023-01-01T10:24:33;12.80;99.90
10419;DHT22;5256;48.728;9.140;2023-01-01T10:27:02;12.90;99.90
10419;DHT22;5256;48.728;9.140;2023-01-01T10:29:49;13.20;99.90
10419;DHT22;5256;48.728;9.140;2023-01-01T10:32:41;13.30;99.90
10419;DHT22;5256;48.728;9.140;2023-01-01T10:35:17;13.30;99.90
10419;DHT22;5256;48.728;9.140;2023-01-01T10:37:43;13.30;99.90
10419;DHT22;5256;48.728;9.140;2023-01-01T10:40:20;13.30;99.90
10419;DHT22;5256;48.728;9.140;2023-01-01T10:42:54;13.30;99.90
10419;DHT22;5256;48.728;9.140;2023-01-01T10:45:39;13.30;99.90
10419;DHT22;5256;48.728;9.140;2023-01-01T10:53:25;13.60;99.90
10419;DHT22;5256;48.728;9.140;2023-01-01T10:56:20;13.60;99.90
10419;DHT22;5256;48.728;9.140;2023-01-01T11:04:00;13.90;99.90
10419;DHT22;5256;48.728;9.140;2023-01-01T11:09:03;14.10;99.90
10419;DHT22;5256;48.728;9.140;2023-01-01T11:14:37;14.20;99.90
10419;DHT22;5256;48.728;9.140;2023-01-01T11:17:04;14.30;99.90
10419;DHT22;5256;48.728;9.140;2023-01-01T11:19:35;14.30;99.90
10419;DHT22;5256;48.728;9.140;2023-01-01T11:22:02;14.30;99.90
10419;DHT22;5256;48.728;9.140;2023-01-01T11:24:29;14.30;99.90
10419;DHT22;5256;48.728;9.140;2023-01-01T11:27:18;14.40;99.90
10419;DHT22;5256;48.728;9.140;2023-01-01T11:29:45;14.40;99.90
10419;DHT22;5256;48.728;9.140;2023-01-01T11:32:17;14.40;99.90
10419;DHT22;5256;48.728;9.140;2023-01-01T11:34:56;14.60;99.90
10419;DHT22;5256;48.728;9.140;2023-01-01T11:37:26;14.60;99.90
10419;DHT22;5256;48.728;9.140;2023-01-01T11:39:55;14.70;99.90
10419;DHT22;5256;48.728;9.140;2023-01-01T11:42:23;14.70;99.90
10419;DHT22;5256;48.728;9.140;2023-01-01T11:44:55;14.60;99.90
10419;DHT22;5256;48.728;9.140;2023-01-01T11:47:33;14.60;99.90
10419;DHT22;5256;48.728;9.140;2023-01-01T11:50:05;14.70;99.90
10419;DHT22;5256;48.728;9.140;2023-01-01T11:52:39;14.70;99.90
10419;DHT22;5256;48.728;9.140;2023-01-01T11:58:00;14.60;99.90
10419;DHT22;5256;48.728;9.140;2023-01-01T12:00:30;14.70;99.90
10419;DHT22;5256;48.728;9.140;2023-01-01T12:03:00;14.70;99.90
10419;DHT22;5256;48.728;9.140;2023-01-01T12:05:46;14.60;99.90
10419;DHT22;5256;48.728;9.140;2023-01-01T12:08:18;14.60;99.90
10419;DHT22;5256;48.728;9.140;2023-01-01T12:10:50;14.70;99.90
10419;DHT22;5256;48.728;9.140;2023-01-01T12:13:21;14.70;99.90
10419;DHT22;5256;48.728;9.140;2023-01-01T12:16:09;14.60;99.90
10419;DHT22;5256;48.728;9.140;2023-01-01T12:19:01;14.70;99.90
10419;DHT22;5256;48.728;9.140;2023-01-01T12:21:29;14.90;99.90
10419;DHT22;5256;48.728;9.140;2023-01-01T12:23:57;14.90;99.90
10419;DHT22;5256;48.728;9.140;2023-01-01T12:26:39;15.00;99.90
10419;DHT22;5256;48.728;9.140;2023-01-01T12:29:36;15.10;99.90
10419;DHT22;5256;48.728;9.140;2023-01-01T12:35:11;15.30;99.90
10419;DHT22;5256;48.728;9.140;2023-01-01T12:38:16;15.30;99.90
10419;DHT22;5256;48.728;9.140;2023-01-01T12:44:14;15.20;99.90
10419;DHT22;5256;48.728;9.140;2023-01-01T12:52:10;15.30;99.90
10419;DHT22;5256;48.728;9.140;2023-01-01T13:00:17;15.30;99.90
10419;DHT22;5256;48.728;9.140;2023-01-01T13:02:51;15.30;99.90
10419;DHT22;5256;48.728;9.140;2023-01-01T13:05:34;15.40;99.90
10419;DHT22;5256;48.728;9.140;2023-01-01T13:08:03;15.50;99.90
10419;DHT22;5256;48.728;9.140;2023-01-01T13:10:32;15.50;99.90
10419;DHT22;5256;48.728;9.140;2023-01-01T13:12:59;15.60;99.90
10419;DHT22;5256;48.728;9.140;2023-01-01T13:18:06;15.60;99.90
10419;DHT22;5256;48.728;9.140;2023-01-01T13:20:35;15.60;99.90
10419;DHT22;5256;48.728;9.140;2023-01-01T13:23:02;15.60;99.90
10419;DHT22;5256;48.728;9.140;2023-01-01T13:25:28;15.60;99.90
10419;DHT22;5256;48.728;9.140;2023-01-01T13:38:54;15.50;99.90
10419;DHT22;5256;48.728;9.140;2023-01-01T13:41:38;15.60;99.90
10419;DHT22;5256;48.728;9.140;2023-01-01T13:46:56;15.60;99.90
10419;DHT22;5256;48.728;9.140;2023-01-01T13:50:09;15.60;99.90
10419;DHT22;5256;48.728;9.140;2023-01-01T13:52:40;15.60;99.90
10419;DHT22;5256;48.728;9.140;2023-01-01T13:59:01;15.30;99.90
10419;DHT22;5256;48.728;9.140;2023-01-01T14:05:04;15.30;99.90
10419;DHT22;5256;48.728;9.140;2023-01-01T14:07:36;15.30;99.90
10419;DHT22;5256;48.728;9.140;2023-01-01T14:10:47;15.30;99.90
10419;DHT22;5256;48.728;9.140;2023-01-01T14:13:15;15.20;99.90
10419;DHT22;5256;48.728;9.140;2023-01-01T14:15:54;15.30;99.90
10419;DHT22;5256;48.728;9.140;2023-01-01T14:18:24;15.40;99.90
10419;DHT22;5256;48.728;9.140;2023-01-01T14:20:55;15.30;99.90
10419;DHT22;5256;48.728;9.140;2023-01-01T14:23:38;15.30;99.90
10419;DHT22;5256;48.728;9.140;2023-01-01T14:26:24;15.30;99.90
10419;DHT22;5256;48.728;9.140;2023-01-01T14:28:55;15.20;99.90
10419;DHT22;5256;48.728;9.140;2023-01-01T14:31:25;15.10;99.90
10419;DHT22;5256;48.728;9.140;2023-01-01T14:33:52;15.00;99.90
10419;DHT22;5256;48.728;9.140;2023-01-01T14:36:23;14.90;99.90
10419;DHT22;5256;48.728;9.140;2023-01-01T14:38:51;14.80;99.90
10419;DHT22;5256;48.728;9.140;2023-01-01T14:41:24;14.60;99.90
10419;DHT22;5256;48.728;9.140;2023-01-01T14:43:52;14.40;99.90
10419;DHT22;5256;48.728;9.140;2023-01-01T14:46:22;14.30;99.90
10419;DHT22;5256;48.728;9.140;2023-01-01T14:48:56;14.20;99.90
10419;DHT22;5256;48.728;9.140;2023-01-01T14:51:29;14.20;99.90
10419;DHT22;5256;48.728;9.140;2023-01-01T14:53:58;14.00;99.90
10419;DHT22;5256;48.728;9.140;2023-01-01T14:56:30;13.90;99.90
10419;DHT22;5256;48.728;9.140;2023-01-01T14:59:05;13.80;99.90
10419;DHT22;5256;48.728;9.140;2023-01-01T15:01:31;13.70;99.90
10419;DHT22;5256;48.728;9.140;2023-01-01T15:04:16;13.60;99.90
10419;DHT22;5256;48.728;9.140;2023-01-01T15:06:43;13.60;99.90
10419;DHT22;5256;48.728;9.140;2023-01-01T15:09:15;13.60;99.90
10419;DHT22;5256;48.728;9.140;2023-01-01T15:11:41;13.40;99.90
10419;DHT22;5256;48.728;9.140;2023-01-01T15:14:35;13.30;99.90
10419;DHT22;5256;48.728;9.140;2023-01-01T15:17:03;13.20;99.90
10419;DHT22;5256;48.728;9.140;2023-01-01T15:19:29;13.00;99.90
10419;DHT22;5256;48.728;9.140;2023-01-01T15:21:55;12.90;99.90
10419;DHT22;5256;48.728;9.140;2023-01-01T15:24:21;12.70;99.90
10419;DHT22;5256;48.728;9.140;2023-01-01T15:26:58;12.60;99.90
10419;DHT22;5256;48.728;9.140;2023-01-01T15:32:06;12.40;99.90
10419;DHT22;5256;48.728;9.140;2023-01-01T15:34:41;12.30;99.90
10419;DHT22;5256;48.728;9.140;2023-01-01T15:47:51;11.90;99.90
10419;DHT22;5256;48.728;9.140;2023-01-01T15:53:19;11.70;99.90
10419;DHT22;5256;48.728;9.140;2023-01-01T15:55:56;11.50;99.90
10419;DHT22;5256;48.728;9.140;2023-01-01T15:58:31;11.30;99.90
10419;DHT22;5256;48.728;9.140;2023-01-01T16:01:04;11.20;99.90
10419;DHT22;5256;48.728;9.140;2023-01-01T16:03:32;11.10;99.90
10419;DHT22;5256;48.728;9.140;2023-01-01T16:05:59;10.90;99.90
10419;DHT22;5256;48.728;9.140;2023-01-01T16:08:25;10.80;99.90
10419;DHT22;5256;48.728;9.140;2023-01-01T16:10:51;10.70;99.90
10419;DHT22;5256;48.728;9.140;2023-01-01T16:13:17;10.60;99.90
10419;DHT22;5256;48.728;9.140;2023-01-01T16:15:50;10.50;99.90
10419;DHT22;5256;48.728;9.140;2023-01-01T16:18:17;10.50;99.90
10419;DHT22;5256;48.728;9.140;2023-01-01T16:20:43;10.40;99.90
10419;DHT22;5256;48.728;9.140;2023-01-01T16:23:10;10.30;99.90
10419;DHT22;5256;48.728;9.140;2023-01-01T16:25:36;10.30;99.90
10419;DHT22;5256;48.728;9.140;2023-01-01T16:28:03;10.40;99.90
10419;DHT22;5256;48.728;9.140;2023-01-01T16:30:30;10.20;99.90
10419;DHT22;5256;48.728;9.140;2023-01-01T16:32:57;10.30;99.90
10419;DHT22;5256;48.728;9.140;2023-01-01T16:35:23;10.20;99.90
10419;DHT22;5256;48.728;9.140;2023-01-01T16:37:49;10.10;99.90
10419;DHT22;5256;48.728;9.140;2023-01-01T16:40:17;10.10;99.90
10419;DHT22;5256;48.728;9.140;2023-01-01T16:42:42;10.00;99.90
10419;DHT22;5256;48.728;9.140;2023-01-01T16:45:15;9.90;99.90
10419;DHT22;5256;48.728;9.140;2023-01-01T16:47:42;9.80;99.90
10419;DHT22;5256;48.728;9.140;2023-01-01T16:50:08;9.80;99.90
10419;DHT22;5256;48.728;9.140;2023-01-01T16:52:35;9.70;99.90
10419;DHT22;5256;48.728;9.140;2023-01-01T16:55:00;9.60;99.90
10419;DHT22;5256;48.728;9.140;2023-01-01T16:57:26;9.60;99.90
10419;DHT22;5256;48.728;9.140;2023-01-01T16:59:52;9.50;99.90
10419;DHT22;5256;48.728;9.140;2023-01-01T17:02:17;9.50;99.90
10419;DHT22;5256;48.728;9.140;2023-01-01T17:04:43;9.40;99.90
10419;DHT22;5256;48.728;9.140;2023-01-01T17:07:08;9.30;99.90
10419;DHT22;5256;48.728;9.140;2023-01-01T17:09:34;9.20;99.90
10419;DHT22;5256;48.728;9.140;2023-01-01T17:12:00;9.10;99.90
10419;DHT22;5256;48.728;9.140;2023-01-01T17:14:25;9.10;99.90
10419;DHT22;5256;48.728;9.140;2023-01-01T17:16:51;9.00;99.90
10419;DHT22;5256;48.728;9.140;2023-01-01T17:19:19;8.90;99.90
10419;DHT22;5256;48.728;9.140;2023-01-01T17:21:46;9.00;99.90
10419;DHT22;5256;48.728;9.140;2023-01-01T17:24:13;9.00;99.90
10419;DHT22;5256;48.728;9.140;2023-01-01T17:26:39;9.00;99.90
10419;DHT22;5256;48.728;9.140;2023-01-01T17:29:04;9.10;99.90
10419;DHT22;5256;48.728;9.140;2023-01-01T17:31:32;9.00;99.90
10419;DHT22;5256;48.728;9.140;2023-01-01T17:33:58;9.00;99.90
10419;DHT22;5256;48.728;9.140;2023-01-01T17:36:24;8.90;99.90
10419;DHT22;5256;48.728;9.140;2023-01-01T17:38:52;8.90;99.90
10419;DHT22;5256;48.728;9.140;2023-01-01T17:41:18;8.80;99.90
10419;DHT22;5256;48.728;9.140;2023-01-01T17:43:46;8.80;99.90
10419;DHT22;5256;48.728;9.140;2023-01-01T17:46:15;8.80;99.90
10419;DHT22;5256;48.728;9.140;2023-01-01T17:48:41;8.80;99.90
10419;DHT22;5256;48.728;9.140;2023-01-01T17:51:08;8.70;99.90
10419;DHT22;5256;48.728;9.140;2023-01-01T17:53:34;8.60;99.90
10419;DHT22;5256;48.728;9.140;2023-01-01T17:55:59;8.60;99.90
10419;DHT22;5256;48.728;9.140;2023-01-01T17:58:25;8.50;99.90
10419;DHT22;5256;48.728;9.140;2023-01-01T18:00:51;8.50;99.90
10419;DHT22;5256;48.728;9.140;2023-01-01T18:03:18;8.60;99.90